createdAt,value
2022-12-31T00:00:07.928Z,100.00
2022-12-31T00:02:35.064Z,100.00
2022-12-31T00:05:04.300Z,100.00
2022-12-31T00:09:57.042Z,100.00
2022-12-31T00:12:23.530Z,100.00
2022-12-31T00:14:49.980Z,100.00
2022-12-31T00:17:16.412Z,100.00
2022-12-31T00:19:43.663Z,100.00
2022-12-31T00:22:10.198Z,100.00
2022-12-31T00:24:36.682Z,100.00
2022-12-31T00:27:03.365Z,100.00
2022-12-31T00:29:29.890Z,100.00
2022-12-31T00:31:58.465Z,100.00
2022-12-31T00:34:25.054Z,100.00
2022-12-31T00:36:52.691Z,100.00
2022-12-31T00:39:19.165Z,100.00
2022-12-31T00:41:45.638Z,100.00
2022-12-31T00:44:12.592Z,100.00
2022-12-31T00:49:04.403Z,100.00
2022-12-31T00:51:30.959Z,100.00
2022-12-31T00:53:57.803Z,100.00
2022-12-31T00:56:27.067Z,100.00
2022-12-31T00:58:54.326Z,100.00
2022-12-31T01:01:27.986Z,100.00
2022-12-31T01:03:58.634Z,100.00
2022-12-31T01:06:25.590Z,100.00
2022-12-31T01:08:53.683Z,100.00
2022-12-31T01:11:22.008Z,100.00
2022-12-31T01:13:52.851Z,100.00
2022-12-31T01:16:22.685Z,100.00
2022-12-31T01:18:49.653Z,100.00
2022-12-31T01:21:16.445Z,100.00
2022-12-31T01:23:42.926Z,100.00
2022-12-31T01:26:14.556Z,100.00
2022-12-31T01:28:41.911Z,100.00
2022-12-31T01:31:13.453Z,100.00
2022-12-31T01:33:41.515Z,100.00
2022-12-31T01:36:11.831Z,100.00
2022-12-31T01:38:38.835Z,100.00
2022-12-31T01:41:05.381Z,100.00
2022-12-31T01:43:45.229Z,100.00
2022-12-31T01:46:18.995Z,100.00
2022-12-31T01:48:49.966Z,100.00
2022-12-31T01:51:17.033Z,100.00
2022-12-31T01:53:43.455Z,100.00
2022-12-31T01:56:10.633Z,100.00
2022-12-31T01:58:43.230Z,100.00
2022-12-31T02:01:12.866Z,100.00
2022-12-31T02:03:40.197Z,100.00
2022-12-31T02:06:20.127Z,100.00
2022-12-31T02:08:47.336Z,100.00
2022-12-31T02:11:30.269Z,100.00
2022-12-31T02:14:02.639Z,100.00
2022-12-31T02:16:40.753Z,100.00
2022-12-31T02:19:33.602Z,100.00
2022-12-31T02:22:11.254Z,100.00
2022-12-31T02:24:46.684Z,100.00
2022-12-31T02:27:22.416Z,100.00
2022-12-31T02:29:57.712Z,100.00
2022-12-31T02:32:31.796Z,100.00
2022-12-31T02:35:08.395Z,100.00
2022-12-31T02:37:37.032Z,100.00
2022-12-31T02:40:09.938Z,100.00
2022-12-31T02:42:36.490Z,100.00
2022-12-31T02:45:02.973Z,100.00
2022-12-31T02:47:51.836Z,100.00
2022-12-31T02:50:55.333Z,100.00
2022-12-31T02:53:41.216Z,100.00
2022-12-31T02:56:24.159Z,100.00
2022-12-31T02:59:28.176Z,100.00
2022-12-31T03:02:16.433Z,100.00
2022-12-31T03:04:48.587Z,100.00
2022-12-31T03:07:20.567Z,100.00
2022-12-31T03:09:47.325Z,100.00
2022-12-31T03:12:34.332Z,100.00
2022-12-31T03:15:00.824Z,100.00
2022-12-31T03:17:27.352Z,100.00
2022-12-31T03:20:12.623Z,100.00
2022-12-31T03:22:42.904Z,100.00
2022-12-31T03:25:35.178Z,100.00
2022-12-31T03:28:04.497Z,100.00
2022-12-31T03:30:32.396Z,100.00
2022-12-31T03:32:59.940Z,100.00
2022-12-31T03:35:29.469Z,100.00
2022-12-31T03:37:56.646Z,100.00
2022-12-31T03:40:25.086Z,100.00
2022-12-31T03:42:51.825Z,100.00
2022-12-31T03:45:18.790Z,100.00
2022-12-31T03:47:45.176Z,100.00
2022-12-31T03:50:13.583Z,100.00
2022-12-31T03:52:40.328Z,100.00
2022-12-31T03:55:07.786Z,100.00
2022-12-31T03:57:34.515Z,100.00
2022-12-31T04:00:01.142Z,100.00
2022-12-31T04:02:29.229Z,100.00
2022-12-31T04:04:56.116Z,100.00
2022-12-31T04:07:22.841Z,100.00
2022-12-31T04:09:49.423Z,100.00
2022-12-31T04:12:17.083Z,100.00
2022-12-31T04:14:43.523Z,100.00
2022-12-31T04:17:10.051Z,100.00
2022-12-31T04:19:37.520Z,100.00
2022-12-31T04:22:04.542Z,100.00
2022-12-31T04:24:30.966Z,100.00
2022-12-31T04:27:02.067Z,100.00
2022-12-31T04:29:32.006Z,100.00
2022-12-31T04:31:58.603Z,100.00
2022-12-31T04:34:25.178Z,100.00
2022-12-31T04:36:51.684Z,100.00
2022-12-31T04:39:18.166Z,100.00
2022-12-31T04:41:44.646Z,100.00
2022-12-31T04:44:11.130Z,100.00
2022-12-31T04:46:38.019Z,100.00
2022-12-31T04:49:04.718Z,100.00
2022-12-31T04:51:31.971Z,100.00
2022-12-31T04:53:58.683Z,100.00
2022-12-31T04:56:26.347Z,100.00
2022-12-31T04:58:53.339Z,100.00
2022-12-31T05:01:19.980Z,100.00
2022-12-31T05:03:46.624Z,100.00
2022-12-31T05:06:14.329Z,100.00
2022-12-31T05:08:41.643Z,100.00
2022-12-31T05:11:08.342Z,100.00
2022-12-31T05:13:36.605Z,100.00
2022-12-31T05:16:03.762Z,100.00
2022-12-31T05:18:31.402Z,100.00
2022-12-31T05:20:57.923Z,100.00
2022-12-31T05:23:24.432Z,100.00
2022-12-31T05:25:52.419Z,100.00
2022-12-31T05:28:19.068Z,100.00
2022-12-31T05:30:48.782Z,100.00
2022-12-31T05:33:15.446Z,100.00
2022-12-31T05:35:41.921Z,100.00
2022-12-31T05:38:08.441Z,100.00
2022-12-31T05:40:34.889Z,100.00
2022-12-31T05:43:01.444Z,100.00
2022-12-31T05:45:31.054Z,100.00
2022-12-31T05:47:58.322Z,100.00
2022-12-31T05:50:25.163Z,100.00
2022-12-31T05:52:55.887Z,100.00
2022-12-31T05:55:22.673Z,100.00
2022-12-31T05:57:49.121Z,100.00
2022-12-31T06:00:15.971Z,100.00
2022-12-31T06:02:42.627Z,100.00
2022-12-31T06:05:09.253Z,100.00
2022-12-31T06:07:35.801Z,100.00
2022-12-31T06:10:05.033Z,100.00
2022-12-31T06:12:31.788Z,100.00
2022-12-31T06:14:58.302Z,100.00
2022-12-31T06:17:24.855Z,100.00
2022-12-31T06:19:51.283Z,100.00
2022-12-31T06:22:17.771Z,100.00
2022-12-31T06:24:44.226Z,100.00
2022-12-31T06:27:10.669Z,100.00
2022-12-31T06:29:37.180Z,100.00
2022-12-31T06:32:03.914Z,100.00
2022-12-31T06:34:30.373Z,100.00
2022-12-31T06:36:56.888Z,100.00
2022-12-31T06:39:23.476Z,100.00
2022-12-31T06:41:50.017Z,100.00
2022-12-31T06:44:16.544Z,100.00
2022-12-31T06:46:43.081Z,100.00
2022-12-31T06:49:09.746Z,100.00
2022-12-31T06:51:36.229Z,100.00
2022-12-31T06:54:02.933Z,100.00
2022-12-31T06:56:34.425Z,100.00
2022-12-31T06:59:02.446Z,100.00
2022-12-31T07:02:05.122Z,100.00
2022-12-31T07:05:01.969Z,100.00
2022-12-31T07:07:40.353Z,100.00
2022-12-31T07:10:29.461Z,100.00
2022-12-31T07:13:10.071Z,100.00
2022-12-31T07:15:36.498Z,100.00
2022-12-31T07:18:02.850Z,100.00
2022-12-31T07:20:29.640Z,100.00
2022-12-31T07:22:57.408Z,100.00
2022-12-31T07:25:24.591Z,100.00
2022-12-31T07:28:15.047Z,100.00
2022-12-31T07:31:07.550Z,100.00
2022-12-31T07:33:41.988Z,100.00
2022-12-31T07:36:26.988Z,100.00
2022-12-31T07:39:00.650Z,100.00
2022-12-31T07:42:01.012Z,100.00
2022-12-31T07:44:33.499Z,100.00
2022-12-31T07:47:03.230Z,100.00
2022-12-31T07:49:30.695Z,100.00
2022-12-31T07:51:58.101Z,100.00
2022-12-31T07:54:24.612Z,100.00
2022-12-31T07:56:54.737Z,100.00
2022-12-31T07:59:41.015Z,100.00
2022-12-31T08:02:53.629Z,100.00
2022-12-31T08:05:20.142Z,100.00
2022-12-31T08:08:23.988Z,100.00
2022-12-31T08:10:59.886Z,100.00
2022-12-31T08:13:27.267Z,100.00
2022-12-31T08:15:55.091Z,100.00
2022-12-31T08:18:21.764Z,100.00
2022-12-31T08:21:00.208Z,100.00
2022-12-31T08:23:43.293Z,100.00
2022-12-31T08:26:18.765Z,100.00
2022-12-31T08:29:12.907Z,100.00
2022-12-31T08:31:52.198Z,100.00
2022-12-31T08:34:36.603Z,100.00
2022-12-31T08:37:48.256Z,100.00
2022-12-31T08:40:31.535Z,100.00
2022-12-31T08:43:03.848Z,100.00
2022-12-31T08:45:47.460Z,100.00
2022-12-31T08:48:29.925Z,100.00
2022-12-31T08:50:57.641Z,100.00
2022-12-31T08:53:24.352Z,100.00
2022-12-31T08:56:00.708Z,100.00
2022-12-31T08:58:48.842Z,100.00
2022-12-31T09:01:22.123Z,100.00
2022-12-31T09:04:20.980Z,100.00
2022-12-31T09:06:57.064Z,100.00
2022-12-31T09:09:47.063Z,100.00
2022-12-31T09:12:22.689Z,100.00
2022-12-31T09:15:02.561Z,100.00
2022-12-31T09:17:39.897Z,100.00
2022-12-31T09:20:13.857Z,100.00
2022-12-31T09:22:40.496Z,100.00
2022-12-31T09:25:07.742Z,100.00
2022-12-31T09:27:50.354Z,100.00
2022-12-31T09:30:17.917Z,100.00
2022-12-31T09:33:02.528Z,100.00
2022-12-31T09:35:57.686Z,100.00
2022-12-31T09:38:56.380Z,100.00
2022-12-31T09:41:47.807Z,100.00
2022-12-31T09:44:26.689Z,100.00
2022-12-31T09:47:23.659Z,100.00
2022-12-31T09:50:02.616Z,100.00
2022-12-31T09:52:54.890Z,100.00
2022-12-31T09:55:37.778Z,100.00
2022-12-31T09:58:27.643Z,100.00
2022-12-31T10:00:59.164Z,100.00
2022-12-31T10:03:25.752Z,100.00
2022-12-31T10:06:10.447Z,100.00
2022-12-31T10:09:02.502Z,100.00
2022-12-31T10:12:22.449Z,100.00
2022-12-31T10:15:07.751Z,100.00
2022-12-31T10:17:43.534Z,100.00
2022-12-31T10:20:33.574Z,100.00
2022-12-31T10:23:12.070Z,100.00
2022-12-31T10:25:54.919Z,100.00
2022-12-31T10:28:35.823Z,100.00
2022-12-31T10:31:14.927Z,100.00
2022-12-31T10:33:50.180Z,100.00
2022-12-31T10:36:31.937Z,100.00
2022-12-31T10:39:24.581Z,100.00
2022-12-31T10:42:09.761Z,100.00
2022-12-31T10:44:57.523Z,100.00
2022-12-31T10:47:51.944Z,100.00
2022-12-31T10:50:27.703Z,100.00
2022-12-31T10:53:09.091Z,100.00
2022-12-31T10:55:35.547Z,100.00
2022-12-31T10:58:24.020Z,100.00
2022-12-31T11:00:58.395Z,100.00
2022-12-31T11:03:39.663Z,100.00
2022-12-31T11:06:24.143Z,100.00
2022-12-31T11:09:32.806Z,100.00
2022-12-31T11:12:26.853Z,100.00
2022-12-31T11:15:19.003Z,100.00
2022-12-31T11:17:54.806Z,100.00
2022-12-31T11:20:56.311Z,100.00
2022-12-31T11:23:22.713Z,100.00
2022-12-31T11:26:07.129Z,100.00
2022-12-31T11:29:02.899Z,100.00
2022-12-31T11:32:02.795Z,100.00
2022-12-31T11:34:33.524Z,100.00
2022-12-31T11:37:09.584Z,100.00
2022-12-31T11:39:57.404Z,100.00
2022-12-31T11:42:26.831Z,100.00
2022-12-31T11:45:14.609Z,100.00
2022-12-31T11:48:28.437Z,100.00
2022-12-31T11:51:02.778Z,100.00
2022-12-31T11:53:46.941Z,100.00
2022-12-31T11:56:18.886Z,100.00
2022-12-31T11:58:55.499Z,100.00
2022-12-31T12:01:36.240Z,100.00
2022-12-31T12:04:03.389Z,100.00
2022-12-31T12:06:32.479Z,100.00
2022-12-31T12:09:04.589Z,100.00
2022-12-31T12:11:35.436Z,100.00
2022-12-31T12:14:19.129Z,100.00
2022-12-31T12:16:45.748Z,100.00
2022-12-31T12:19:18.692Z,100.00
2022-12-31T12:21:47.767Z,100.00
2022-12-31T12:24:22.534Z,100.00
2022-12-31T12:26:49.417Z,100.00
2022-12-31T12:29:24.362Z,100.00
2022-12-31T12:31:58.107Z,100.00
2022-12-31T12:34:31.269Z,100.00
2022-12-31T12:36:57.845Z,100.00
2022-12-31T12:39:28.318Z,100.00
2022-12-31T12:42:13.811Z,100.00
2022-12-31T12:44:41.926Z,100.00
2022-12-31T12:47:15.908Z,100.00
2022-12-31T12:49:49.638Z,100.00
2022-12-31T12:52:19.780Z,100.00
2022-12-31T12:55:04.982Z,100.00
2022-12-31T12:57:41.701Z,100.00
2022-12-31T13:00:17.329Z,100.00
2022-12-31T13:02:52.780Z,100.00
2022-12-31T13:05:52.629Z,100.00
2022-12-31T13:08:25.537Z,100.00
2022-12-31T13:11:03.981Z,100.00
2022-12-31T13:13:50.883Z,100.00
2022-12-31T13:16:36.830Z,100.00
2022-12-31T13:19:16.403Z,100.00
2022-12-31T13:21:58.900Z,100.00
2022-12-31T13:24:47.066Z,100.00
2022-12-31T13:27:37.527Z,100.00
2022-12-31T13:30:13.792Z,100.00
2022-12-31T13:32:44.876Z,100.00
2022-12-31T13:35:35.756Z,100.00
2022-12-31T13:38:15.209Z,100.00
2022-12-31T13:41:02.975Z,100.00
2022-12-31T13:43:50.669Z,100.00
2022-12-31T13:46:54.502Z,100.00
2022-12-31T13:49:20.929Z,100.00
2022-12-31T13:51:50.352Z,100.00
2022-12-31T13:55:11.134Z,100.00
2022-12-31T13:57:49.319Z,100.00
2022-12-31T14:00:41.297Z,100.00
2022-12-31T14:03:24.302Z,100.00
2022-12-31T14:05:59.636Z,100.00
2022-12-31T14:08:26.549Z,100.00
2022-12-31T14:11:05.377Z,100.00
2022-12-31T14:13:43.264Z,100.00
2022-12-31T14:16:24.526Z,100.00
2022-12-31T14:19:34.211Z,100.00
2022-12-31T14:22:14.795Z,100.00
2022-12-31T14:24:47.745Z,100.00
2022-12-31T14:27:21.727Z,100.00
2022-12-31T14:29:56.900Z,100.00
2022-12-31T14:32:38.532Z,100.00
2022-12-31T14:35:28.020Z,100.00
2022-12-31T14:38:25.112Z,100.00
2022-12-31T14:41:09.844Z,100.00
2022-12-31T14:44:08.713Z,100.00
2022-12-31T14:46:53.888Z,100.00
2022-12-31T14:49:35.424Z,100.00
2022-12-31T14:52:15.090Z,100.00
2022-12-31T14:54:42.727Z,100.00
2022-12-31T14:57:27.376Z,100.00
2022-12-31T14:59:58.141Z,100.00
2022-12-31T15:02:31.708Z,100.00
2022-12-31T15:05:32.108Z,100.00
2022-12-31T15:08:16.809Z,100.00
2022-12-31T15:11:06.300Z,100.00
2022-12-31T15:13:45.021Z,100.00
2022-12-31T15:16:32.684Z,100.00
2022-12-31T15:19:37.625Z,100.00
2022-12-31T15:22:20.758Z,100.00
2022-12-31T15:24:47.896Z,100.00
2022-12-31T15:27:23.370Z,100.00
2022-12-31T15:29:52.823Z,100.00
2022-12-31T15:32:29.885Z,100.00
2022-12-31T15:35:05.409Z,100.00
2022-12-31T15:37:36.026Z,100.00
2022-12-31T15:40:24.843Z,100.00
2022-12-31T15:43:16.523Z,100.00
2022-12-31T15:45:43.331Z,100.00
2022-12-31T15:48:15.213Z,100.00
2022-12-31T15:50:44.087Z,100.00
2022-12-31T15:53:33.514Z,100.00
2022-12-31T15:56:02.915Z,100.00
2022-12-31T15:58:38.138Z,100.00
2022-12-31T16:01:15.624Z,100.00
2022-12-31T16:03:58.253Z,100.00
2022-12-31T16:06:29.463Z,100.00
2022-12-31T16:08:56.563Z,100.00
2022-12-31T16:11:24.908Z,100.00
2022-12-31T16:13:54.792Z,100.00
2022-12-31T16:16:28.051Z,100.00
2022-12-31T16:18:56.233Z,100.00
2022-12-31T16:21:30.049Z,100.00
2022-12-31T16:23:59.823Z,100.00
2022-12-31T16:26:43.684Z,100.00
2022-12-31T16:29:19.496Z,100.00
2022-12-31T16:31:47.581Z,100.00
2022-12-31T16:34:26.066Z,100.00
2022-12-31T16:37:06.554Z,100.00
2022-12-31T16:39:38.308Z,100.00
2022-12-31T16:42:07.804Z,100.00
2022-12-31T16:44:34.930Z,100.00
2022-12-31T16:47:03.341Z,100.00
2022-12-31T16:49:32.233Z,100.00
2022-12-31T16:52:03.521Z,100.00
2022-12-31T16:54:38.249Z,100.00
2022-12-31T16:57:06.290Z,100.00
2022-12-31T17:00:00.427Z,100.00
2022-12-31T17:02:37.929Z,100.00
2022-12-31T17:05:05.165Z,100.00
2022-12-31T17:07:31.723Z,100.00
2022-12-31T17:10:22.028Z,100.00
2022-12-31T17:15:43.605Z,100.00
2022-12-31T17:18:19.926Z,100.00
2022-12-31T17:20:47.471Z,100.00
2022-12-31T17:23:23.458Z,100.00
2022-12-31T17:25:59.191Z,100.00
2022-12-31T17:28:27.329Z,100.00
2022-12-31T17:31:32.470Z,100.00
2022-12-31T17:34:14.587Z,100.00
2022-12-31T17:36:54.553Z,100.00
2022-12-31T17:39:23.219Z,100.00
2022-12-31T17:41:52.545Z,100.00
2022-12-31T17:44:21.899Z,100.00
2022-12-31T17:46:50.077Z,100.00
2022-12-31T17:49:17.557Z,100.00
2022-12-31T17:51:47.739Z,100.00
2022-12-31T17:54:16.155Z,100.00
2022-12-31T17:56:43.452Z,100.00
2022-12-31T17:59:17.947Z,100.00
2022-12-31T18:01:44.748Z,100.00
2022-12-31T18:04:15.977Z,100.00
2022-12-31T18:06:43.295Z,100.00
2022-12-31T18:09:09.911Z,100.00
2022-12-31T18:11:38.371Z,100.00
2022-12-31T18:14:05.004Z,100.00
2022-12-31T18:16:33.177Z,100.00
2022-12-31T18:19:01.232Z,100.00
2022-12-31T18:21:32.412Z,100.00
2022-12-31T18:26:27.130Z,100.00
2022-12-31T18:28:53.610Z,100.00
2022-12-31T18:31:25.839Z,100.00
2022-12-31T18:33:54.996Z,100.00
2022-12-31T18:36:23.304Z,100.00
2022-12-31T18:38:49.843Z,100.00
2022-12-31T18:41:18.023Z,100.00
2022-12-31T18:43:45.016Z,100.00
2022-12-31T18:46:15.397Z,100.00
2022-12-31T18:48:42.618Z,100.00
2022-12-31T18:51:17.461Z,100.00
2022-12-31T18:53:44.393Z,100.00
2022-12-31T18:56:14.765Z,100.00
2022-12-31T18:58:41.877Z,100.00
2022-12-31T19:01:29.140Z,100.00
2022-12-31T19:03:58.447Z,100.00
2022-12-31T19:06:25.294Z,100.00
2022-12-31T19:08:51.866Z,100.00
2022-12-31T19:11:19.811Z,100.00
2022-12-31T19:13:46.459Z,100.00
2022-12-31T19:16:14.022Z,100.00
2022-12-31T19:18:41.701Z,100.00
2022-12-31T19:21:17.520Z,100.00
2022-12-31T19:23:45.031Z,100.00
2022-12-31T19:26:16.678Z,100.00
2022-12-31T19:28:44.560Z,100.00
2022-12-31T19:31:11.127Z,100.00
2022-12-31T19:33:37.966Z,100.00
2022-12-31T19:36:07.193Z,100.00
2022-12-31T19:38:34.333Z,100.00
2022-12-31T19:41:01.891Z,100.00
2022-12-31T19:43:28.801Z,100.00
2022-12-31T19:45:55.336Z,100.00
2022-12-31T19:48:32.079Z,100.00
2022-12-31T19:50:59.275Z,100.00
2022-12-31T19:53:27.879Z,100.00
2022-12-31T19:55:54.704Z,100.00
2022-12-31T19:58:26.485Z,100.00
2022-12-31T20:01:01.689Z,100.00
2022-12-31T20:03:29.155Z,100.00
2022-12-31T20:06:21.849Z,100.00
2022-12-31T20:08:48.496Z,100.00
2022-12-31T20:11:18.611Z,100.00
2022-12-31T20:13:46.402Z,100.00
2022-12-31T20:16:16.867Z,100.00
2022-12-31T20:18:44.649Z,100.00
2022-12-31T20:21:14.685Z,100.00
2022-12-31T20:23:41.440Z,100.00
2022-12-31T20:26:07.987Z,100.00
2022-12-31T20:28:36.371Z,100.00
2022-12-31T20:31:11.245Z,100.00
2022-12-31T20:33:38.161Z,100.00
2022-12-31T20:36:06.881Z,100.00
2022-12-31T20:38:34.062Z,100.00
2022-12-31T20:41:09.226Z,100.00
2022-12-31T20:43:36.413Z,100.00
2022-12-31T20:46:14.314Z,100.00
2022-12-31T20:48:41.895Z,100.00
2022-12-31T20:51:08.463Z,100.00
2022-12-31T20:53:34.960Z,100.00
2022-12-31T20:56:09.448Z,100.00
2022-12-31T20:58:36.606Z,100.00
2022-12-31T21:01:07.200Z,100.00
2022-12-31T21:04:04.778Z,100.00
2022-12-31T21:06:25.517Z,100.00
2022-12-31T21:08:52.087Z,100.00
2022-12-31T21:11:37.469Z,100.00
2022-12-31T21:14:04.055Z,100.00
2022-12-31T21:16:30.563Z,100.00
2022-12-31T21:18:57.126Z,100.00
2022-12-31T21:21:24.017Z,100.00
2022-12-31T21:23:51.100Z,100.00
2022-12-31T21:26:17.532Z,100.00
2022-12-31T21:28:43.978Z,100.00
2022-12-31T21:31:13.046Z,100.00
2022-12-31T21:33:40.042Z,100.00
2022-12-31T21:36:06.719Z,99.86
2022-12-31T21:38:36.233Z,99.72
2022-12-31T21:41:04.768Z,99.52
2022-12-31T21:43:31.325Z,99.88
2022-12-31T21:46:02.683Z,99.12
2022-12-31T21:48:29.499Z,99.43
2022-12-31T21:51:03.902Z,97.47
2022-12-31T21:53:36.628Z,98.06
2022-12-31T21:56:15.936Z,97.98
2022-12-31T21:59:08.427Z,98.28
2022-12-31T22:01:53.587Z,97.92
2022-12-31T22:04:59.815Z,96.01
2022-12-31T22:07:06.473Z,95.49
2022-12-31T22:09:33.407Z,97.09
2022-12-31T22:11:59.770Z,94.90
2022-12-31T22:14:26.200Z,95.96
2022-12-31T22:16:52.643Z,95.25
2022-12-31T22:19:19.190Z,94.84
2022-12-31T22:21:45.680Z,94.65
2022-12-31T22:24:12.185Z,94.99
2022-12-31T22:26:43.082Z,94.66
2022-12-31T22:29:12.844Z,93.65
2022-12-31T22:31:39.285Z,93.70
2022-12-31T22:34:05.780Z,92.75
2022-12-31T22:36:32.271Z,93.83
2022-12-31T22:38:58.846Z,93.30
2022-12-31T22:41:27.296Z,92.79
2022-12-31T22:44:02.638Z,93.79
2022-12-31T22:46:30.634Z,92.34
2022-12-31T22:48:59.214Z,90.39
2022-12-31T22:51:54.557Z,91.55
2022-12-31T22:54:13.428Z,90.81
2022-12-31T22:56:40.793Z,90.08
2022-12-31T22:59:07.271Z,91.06
2022-12-31T23:01:34.565Z,89.75
2022-12-31T23:04:01.436Z,90.83
2022-12-31T23:06:28.908Z,88.34
2022-12-31T23:09:14.553Z,90.19
2022-12-31T23:11:43.143Z,90.39
2022-12-31T23:14:34.523Z,89.96
2022-12-31T23:17:29.979Z,89.99
2022-12-31T23:20:21.445Z,89.13
2022-12-31T23:23:26.614Z,88.55
2022-12-31T23:25:53.377Z,88.18
2022-12-31T23:28:23.373Z,87.14
2022-12-31T23:30:51.524Z,86.13
2022-12-31T23:33:24.535Z,87.41
2022-12-31T23:35:51.253Z,88.43
2022-12-31T23:38:18.887Z,87.56
2022-12-31T23:40:45.610Z,87.63
2022-12-31T23:43:19.705Z,86.31
2022-12-31T23:45:46.171Z,86.33
2022-12-31T23:48:12.600Z,86.35
2022-12-31T23:50:40.340Z,86.70
2022-12-31T23:53:06.833Z,86.39
2022-12-31T23:55:33.542Z,85.81
2022-12-31T23:58:00.012Z,85.68
